<?xml version="1.0" encoding="UTF-8" standalone="no" ?>
<gpx xmlns="http://www.topografix.com/GPX/1/1" xmlns:xsi="http://www.w3.org/2001/XMLSchema-instance" xsi:schemaLocation="http://www.topografix.com/GPX/1/1 http://www.topografix.com/GPX/1/1/gpx.xsd" version="1.1" creator="VisuGPX - https://www.visugpx.com">
  <metadata>
    <name> GY JUSY Le Près de Vilette  CURRENT TRACK- 30 SEP 2021 </name>
    <desc><![CDATA[GY JUSSY Les Près de Vilette CURRENT TRACK- 30 SEP 202
Boucle au départ de GY.
Liaison VEIGY GY.]]></desc>
  </metadata>
  <trk>
    <name><![CDATA[CURRENT TRACK- 30 SEP 2021 GY JUSY]]></name>
    <extensions>
      <line xmlns="http://www.topografix.com/GPX/gpx_style/0/2">
        <color>0000FF</color>
        <width>4</width>
      </line>
    </extensions>
    <trkseg>
      <trkpt lat="46.26821" lon="6.25795">
        <ele>428.8</ele>
        <time>2021-09-30T10:19:49Z</time>
      </trkpt>
      <trkpt lat="46.26838" lon="6.25747">
        <ele>428.1</ele>
      </trkpt>
      <trkpt lat="46.26848" lon="6.25787">
        <ele>428.6</ele>
      </trkpt>
      <trkpt lat="46.2687" lon="6.25809">
        <ele>429.1</ele>
        <time>2021-09-30T10:19:49Z</time>
      </trkpt>
      <trkpt lat="46.26886" lon="6.25814">
        <ele>489</ele>
        <time>2021-09-30T10:19:54Z</time>
      </trkpt>
      <trkpt lat="46.26906" lon="6.25813">
        <ele>497</ele>
        <time>2021-09-30T10:20:00Z</time>
      </trkpt>
      <trkpt lat="46.26901" lon="6.25841">
        <ele>493</ele>
        <time>2021-09-30T10:20:07Z</time>
      </trkpt>
      <trkpt lat="46.26878" lon="6.25895">
        <ele>493</ele>
        <time>2021-09-30T10:20:17Z</time>
      </trkpt>
      <trkpt lat="46.26866" lon="6.25916">
        <ele>493</ele>
        <time>2021-09-30T10:20:21Z</time>
      </trkpt>
      <trkpt lat="46.26856" lon="6.25942">
        <ele>493</ele>
        <time>2021-09-30T10:20:26Z</time>
      </trkpt>
      <trkpt lat="46.26839" lon="6.25997">
        <ele>493</ele>
        <time>2021-09-30T10:20:37Z</time>
      </trkpt>
      <trkpt lat="46.26832" lon="6.26026">
        <ele>494</ele>
        <time>2021-09-30T10:20:42Z</time>
      </trkpt>
      <trkpt lat="46.26827" lon="6.26053">
        <ele>494</ele>
        <time>2021-09-30T10:20:47Z</time>
      </trkpt>
      <trkpt lat="46.26822" lon="6.26081">
        <ele>494</ele>
        <time>2021-09-30T10:20:52Z</time>
      </trkpt>
      <trkpt lat="46.26814" lon="6.26139">
        <ele>495</ele>
        <time>2021-09-30T10:21:02Z</time>
      </trkpt>
      <trkpt lat="46.26812" lon="6.26165">
        <ele>495</ele>
        <time>2021-09-30T10:21:07Z</time>
      </trkpt>
      <trkpt lat="46.26797" lon="6.26182">
        <ele>495</ele>
        <time>2021-09-30T10:21:14Z</time>
      </trkpt>
      <trkpt lat="46.26756" lon="6.26158">
        <ele>495</ele>
        <time>2021-09-30T10:21:24Z</time>
      </trkpt>
      <trkpt lat="46.26741" lon="6.26176">
        <ele>495</ele>
        <time>2021-09-30T10:21:29Z</time>
      </trkpt>
      <trkpt lat="46.26736" lon="6.26202">
        <ele>494</ele>
        <time>2021-09-30T10:21:34Z</time>
      </trkpt>
      <trkpt lat="46.26726" lon="6.26221">
        <ele>494</ele>
        <time>2021-09-30T10:21:41Z</time>
      </trkpt>
      <trkpt lat="46.26688" lon="6.26199">
        <ele>493</ele>
        <time>2021-09-30T10:21:52Z</time>
      </trkpt>
      <trkpt lat="46.26675" lon="6.26206">
        <ele>491</ele>
        <time>2021-09-30T10:21:59Z</time>
      </trkpt>
      <trkpt lat="46.26669" lon="6.26232">
        <ele>491</ele>
        <time>2021-09-30T10:22:05Z</time>
      </trkpt>
      <trkpt lat="46.26646" lon="6.26283">
        <ele>491</ele>
        <time>2021-09-30T10:22:16Z</time>
      </trkpt>
      <trkpt lat="46.26638" lon="6.26311">
        <ele>491</ele>
        <time>2021-09-30T10:22:25Z</time>
      </trkpt>
      <trkpt lat="46.26632" lon="6.26339">
        <ele>490</ele>
        <time>2021-09-30T10:22:34Z</time>
      </trkpt>
      <trkpt lat="46.26626" lon="6.26369">
        <ele>490</ele>
        <time>2021-09-30T10:22:42Z</time>
      </trkpt>
      <trkpt lat="46.26623" lon="6.26439">
        <ele>490</ele>
        <time>2021-09-30T10:22:55Z</time>
      </trkpt>
      <trkpt lat="46.26623" lon="6.26474">
        <ele>490</ele>
        <time>2021-09-30T10:23:02Z</time>
      </trkpt>
      <trkpt lat="46.26627" lon="6.26505">
        <ele>490</ele>
        <time>2021-09-30T10:23:09Z</time>
      </trkpt>
      <trkpt lat="46.26635" lon="6.26544">
        <ele>490</ele>
        <time>2021-09-30T10:23:18Z</time>
      </trkpt>
      <trkpt lat="46.26655" lon="6.26614">
        <ele>490</ele>
        <time>2021-09-30T10:23:33Z</time>
      </trkpt>
      <trkpt lat="46.26663" lon="6.26647">
        <ele>490</ele>
        <time>2021-09-30T10:23:40Z</time>
      </trkpt>
      <trkpt lat="46.26672" lon="6.26681">
        <ele>490</ele>
        <time>2021-09-30T10:23:47Z</time>
      </trkpt>
      <trkpt lat="46.26694" lon="6.26747">
        <ele>490</ele>
        <time>2021-09-30T10:24:00Z</time>
      </trkpt>
      <trkpt lat="46.26704" lon="6.26784">
        <ele>490</ele>
        <time>2021-09-30T10:24:08Z</time>
      </trkpt>
      <trkpt lat="46.26717" lon="6.26813">
        <ele>490</ele>
        <time>2021-09-30T10:24:16Z</time>
      </trkpt>
      <trkpt lat="46.26733" lon="6.2684">
        <ele>490</ele>
        <time>2021-09-30T10:24:24Z</time>
      </trkpt>
      <trkpt lat="46.26763" lon="6.26879">
        <ele>490</ele>
        <time>2021-09-30T10:24:42Z</time>
      </trkpt>
      <trkpt lat="46.26768" lon="6.26907">
        <ele>493</ele>
        <time>2021-09-30T10:25:12Z</time>
      </trkpt>
      <trkpt lat="46.26769" lon="6.26932">
        <ele>493</ele>
        <time>2021-09-30T10:25:20Z</time>
      </trkpt>
      <trkpt lat="46.26758" lon="6.26986">
        <ele>492</ele>
        <time>2021-09-30T10:25:37Z</time>
      </trkpt>
      <trkpt lat="46.26746" lon="6.27013">
        <ele>492</ele>
        <time>2021-09-30T10:25:42Z</time>
      </trkpt>
      <trkpt lat="46.26734" lon="6.27041">
        <ele>492</ele>
        <time>2021-09-30T10:25:47Z</time>
      </trkpt>
      <trkpt lat="46.26716" lon="6.27042">
        <ele>494</ele>
        <time>2021-09-30T10:25:54Z</time>
      </trkpt>
      <trkpt lat="46.26682" lon="6.27007">
        <ele>494</ele>
        <time>2021-09-30T10:26:04Z</time>
      </trkpt>
      <trkpt lat="46.26667" lon="6.27008">
        <ele>495</ele>
        <time>2021-09-30T10:26:10Z</time>
      </trkpt>
      <trkpt lat="46.26666" lon="6.27037">
        <ele>496</ele>
        <time>2021-09-30T10:26:16Z</time>
      </trkpt>
      <trkpt lat="46.26664" lon="6.27067">
        <ele>498</ele>
        <time>2021-09-30T10:26:22Z</time>
      </trkpt>
      <trkpt lat="46.26641" lon="6.27119">
        <ele>502</ele>
        <time>2021-09-30T10:26:33Z</time>
      </trkpt>
      <trkpt lat="46.26627" lon="6.27136">
        <ele>503</ele>
        <time>2021-09-30T10:26:37Z</time>
      </trkpt>
      <trkpt lat="46.26618" lon="6.27162">
        <ele>504</ele>
        <time>2021-09-30T10:26:43Z</time>
      </trkpt>
      <trkpt lat="46.26617" lon="6.27221">
        <ele>506</ele>
        <time>2021-09-30T10:26:54Z</time>
      </trkpt>
      <trkpt lat="46.26617" lon="6.27248">
        <ele>506</ele>
        <time>2021-09-30T10:26:59Z</time>
      </trkpt>
      <trkpt lat="46.26617" lon="6.27276">
        <ele>507</ele>
        <time>2021-09-30T10:27:04Z</time>
      </trkpt>
      <trkpt lat="46.26616" lon="6.27303">
        <ele>507</ele>
        <time>2021-09-30T10:27:09Z</time>
      </trkpt>
      <trkpt lat="46.26615" lon="6.27361">
        <ele>508</ele>
        <time>2021-09-30T10:27:21Z</time>
      </trkpt>
      <trkpt lat="46.26613" lon="6.27392">
        <ele>508</ele>
        <time>2021-09-30T10:27:26Z</time>
      </trkpt>
      <trkpt lat="46.26612" lon="6.27421">
        <ele>509</ele>
        <time>2021-09-30T10:27:31Z</time>
      </trkpt>
      <trkpt lat="46.26613" lon="6.27478">
        <ele>509</ele>
        <time>2021-09-30T10:27:44Z</time>
      </trkpt>
      <trkpt lat="46.26612" lon="6.27504">
        <ele>510</ele>
        <time>2021-09-30T10:27:49Z</time>
      </trkpt>
      <trkpt lat="46.26612" lon="6.27534">
        <ele>510</ele>
        <time>2021-09-30T10:27:54Z</time>
      </trkpt>
      <trkpt lat="46.26599" lon="6.27555">
        <ele>510</ele>
        <time>2021-09-30T10:28:00Z</time>
      </trkpt>
      <trkpt lat="46.26567" lon="6.27598">
        <ele>511</ele>
        <time>2021-09-30T10:28:11Z</time>
      </trkpt>
      <trkpt lat="46.26552" lon="6.27619">
        <ele>512</ele>
        <time>2021-09-30T10:28:17Z</time>
      </trkpt>
      <trkpt lat="46.2654" lon="6.27641">
        <ele>512</ele>
        <time>2021-09-30T10:28:24Z</time>
      </trkpt>
      <trkpt lat="46.2653" lon="6.27609">
        <ele>513</ele>
        <time>2021-09-30T10:30:19Z</time>
      </trkpt>
      <trkpt lat="46.26522" lon="6.27586">
        <ele>513</ele>
        <time>2021-09-30T10:30:23Z</time>
      </trkpt>
      <trkpt lat="46.2651" lon="6.27555">
        <ele>513</ele>
        <time>2021-09-30T10:30:27Z</time>
      </trkpt>
      <trkpt lat="46.26501" lon="6.27531">
        <ele>513</ele>
        <time>2021-09-30T10:30:30Z</time>
      </trkpt>
      <trkpt lat="46.26482" lon="6.2748">
        <ele>513</ele>
        <time>2021-09-30T10:30:38Z</time>
      </trkpt>
      <trkpt lat="46.2647" lon="6.27454">
        <ele>513</ele>
        <time>2021-09-30T10:30:43Z</time>
      </trkpt>
      <trkpt lat="46.26459" lon="6.2743">
        <ele>513</ele>
        <time>2021-09-30T10:30:47Z</time>
      </trkpt>
      <trkpt lat="46.26445" lon="6.27406">
        <ele>513</ele>
        <time>2021-09-30T10:30:51Z</time>
      </trkpt>
      <trkpt lat="46.26416" lon="6.27369">
        <ele>513</ele>
        <time>2021-09-30T10:31:00Z</time>
      </trkpt>
      <trkpt lat="46.26402" lon="6.27349">
        <ele>513</ele>
        <time>2021-09-30T10:31:06Z</time>
      </trkpt>
      <trkpt lat="46.26391" lon="6.27323">
        <ele>510</ele>
        <time>2021-09-30T10:31:11Z</time>
      </trkpt>
      <trkpt lat="46.26376" lon="6.27273">
        <ele>509</ele>
        <time>2021-09-30T10:31:20Z</time>
      </trkpt>
      <trkpt lat="46.26368" lon="6.27245">
        <ele>509</ele>
        <time>2021-09-30T10:31:25Z</time>
      </trkpt>
      <trkpt lat="46.2636" lon="6.27217">
        <ele>509</ele>
        <time>2021-09-30T10:31:31Z</time>
      </trkpt>
      <trkpt lat="46.26351" lon="6.2719">
        <ele>509</ele>
        <time>2021-09-30T10:31:36Z</time>
      </trkpt>
      <trkpt lat="46.26325" lon="6.27141">
        <ele>508</ele>
        <time>2021-09-30T10:31:44Z</time>
      </trkpt>
      <trkpt lat="46.26308" lon="6.27124">
        <ele>508</ele>
        <time>2021-09-30T10:31:48Z</time>
      </trkpt>
      <trkpt lat="46.26296" lon="6.27103">
        <ele>508</ele>
        <time>2021-09-30T10:31:52Z</time>
      </trkpt>
      <trkpt lat="46.26288" lon="6.27043">
        <ele>507</ele>
        <time>2021-09-30T10:32:02Z</time>
      </trkpt>
      <trkpt lat="46.26283" lon="6.27017">
        <ele>507</ele>
        <time>2021-09-30T10:32:07Z</time>
      </trkpt>
      <trkpt lat="46.26274" lon="6.2699">
        <ele>506</ele>
        <time>2021-09-30T10:32:12Z</time>
      </trkpt>
      <trkpt lat="46.2626" lon="6.26968">
        <ele>506</ele>
        <time>2021-09-30T10:32:17Z</time>
      </trkpt>
      <trkpt lat="46.2623" lon="6.26933">
        <ele>506</ele>
        <time>2021-09-30T10:32:30Z</time>
      </trkpt>
      <trkpt lat="46.26241" lon="6.26904">
        <ele>506</ele>
        <time>2021-09-30T10:32:36Z</time>
      </trkpt>
      <trkpt lat="46.26245" lon="6.26877">
        <ele>505</ele>
        <time>2021-09-30T10:32:40Z</time>
      </trkpt>
      <trkpt lat="46.26235" lon="6.26855">
        <ele>505</ele>
        <time>2021-09-30T10:32:45Z</time>
      </trkpt>
      <trkpt lat="46.26202" lon="6.2682">
        <ele>505</ele>
        <time>2021-09-30T10:32:57Z</time>
      </trkpt>
      <trkpt lat="46.26187" lon="6.268">
        <ele>505</ele>
        <time>2021-09-30T10:33:02Z</time>
      </trkpt>
      <trkpt lat="46.26172" lon="6.26776">
        <ele>505</ele>
        <time>2021-09-30T10:33:07Z</time>
      </trkpt>
      <trkpt lat="46.2614" lon="6.26745">
        <ele>505</ele>
        <time>2021-09-30T10:33:18Z</time>
      </trkpt>
      <trkpt lat="46.26123" lon="6.26731">
        <ele>505</ele>
        <time>2021-09-30T10:33:25Z</time>
      </trkpt>
      <trkpt lat="46.26106" lon="6.26717">
        <ele>505</ele>
        <time>2021-09-30T10:33:31Z</time>
      </trkpt>
      <trkpt lat="46.2609" lon="6.26702">
        <ele>506</ele>
        <time>2021-09-30T10:33:37Z</time>
      </trkpt>
      <trkpt lat="46.26057" lon="6.26674">
        <ele>506</ele>
        <time>2021-09-30T10:33:53Z</time>
      </trkpt>
      <trkpt lat="46.26043" lon="6.26656">
        <ele>507</ele>
        <time>2021-09-30T10:34:02Z</time>
      </trkpt>
      <trkpt lat="46.26032" lon="6.26632">
        <ele>508</ele>
        <time>2021-09-30T10:34:10Z</time>
      </trkpt>
      <trkpt lat="46.26003" lon="6.26585">
        <ele>507</ele>
        <time>2021-09-30T10:34:19Z</time>
      </trkpt>
      <trkpt lat="46.25986" lon="6.26571">
        <ele>507</ele>
        <time>2021-09-30T10:34:23Z</time>
      </trkpt>
      <trkpt lat="46.2598" lon="6.26571">
        <ele>506</ele>
        <time>2021-09-30T10:34:52Z</time>
      </trkpt>
      <trkpt lat="46.25965" lon="6.26556">
        <ele>506</ele>
        <time>2021-09-30T10:35:03Z</time>
      </trkpt>
      <trkpt lat="46.25961" lon="6.26532">
        <ele>450</ele>
      </trkpt>
      <trkpt lat="46.2597" lon="6.26502">
        <ele>505</ele>
        <time>2021-09-30T10:35:13Z</time>
      </trkpt>
      <trkpt lat="46.25975" lon="6.26475">
        <ele>505</ele>
        <time>2021-09-30T10:35:18Z</time>
      </trkpt>
      <trkpt lat="46.25968" lon="6.2645">
        <ele>448.3</ele>
        <time>2021-09-30T10:35:30Z</time>
      </trkpt>
      <trkpt lat="46.25914" lon="6.26405">
        <ele>449.1</ele>
        <time>2021-09-30T10:41:02Z</time>
      </trkpt>
      <trkpt lat="46.25926" lon="6.26378">
        <ele>448.8</ele>
      </trkpt>
      <trkpt lat="46.25942" lon="6.26353">
        <ele>507</ele>
        <time>2021-09-30T10:41:07Z</time>
      </trkpt>
      <trkpt lat="46.25956" lon="6.26332">
        <ele>507</ele>
        <time>2021-09-30T10:41:13Z</time>
      </trkpt>
      <trkpt lat="46.25969" lon="6.26312">
        <ele>507</ele>
        <time>2021-09-30T10:41:19Z</time>
      </trkpt>
      <trkpt lat="46.25999" lon="6.26222">
        <ele>446.7</ele>
      </trkpt>
      <trkpt lat="46.25977" lon="6.26192">
        <ele>507</ele>
        <time>2021-09-30T10:42:32Z</time>
      </trkpt>
      <trkpt lat="46.2596" lon="6.26174">
        <ele>507</ele>
        <time>2021-09-30T10:42:37Z</time>
      </trkpt>
      <trkpt lat="46.25944" lon="6.26157">
        <ele>507</ele>
        <time>2021-09-30T10:42:42Z</time>
      </trkpt>
      <trkpt lat="46.25928" lon="6.26139">
        <ele>507</ele>
        <time>2021-09-30T10:42:48Z</time>
      </trkpt>
      <trkpt lat="46.25898" lon="6.26103">
        <ele>507</ele>
        <time>2021-09-30T10:42:56Z</time>
      </trkpt>
      <trkpt lat="46.25884" lon="6.26087">
        <ele>507</ele>
        <time>2021-09-30T10:43:01Z</time>
      </trkpt>
      <trkpt lat="46.25879" lon="6.26063">
        <ele>507</ele>
        <time>2021-09-30T10:43:10Z</time>
      </trkpt>
      <trkpt lat="46.25902" lon="6.26017">
        <ele>507</ele>
        <time>2021-09-30T10:43:22Z</time>
      </trkpt>
      <trkpt lat="46.25914" lon="6.25995">
        <ele>507</ele>
        <time>2021-09-30T10:43:27Z</time>
      </trkpt>
      <trkpt lat="46.25926" lon="6.25975">
        <ele>507</ele>
        <time>2021-09-30T10:43:32Z</time>
      </trkpt>
      <trkpt lat="46.25939" lon="6.25954">
        <ele>507</ele>
        <time>2021-09-30T10:43:38Z</time>
      </trkpt>
      <trkpt lat="46.25957" lon="6.25907">
        <ele>507</ele>
        <time>2021-09-30T10:43:50Z</time>
      </trkpt>
      <trkpt lat="46.25942" lon="6.2589">
        <ele>507</ele>
        <time>2021-09-30T10:43:56Z</time>
      </trkpt>
      <trkpt lat="46.25923" lon="6.25871">
        <ele>507</ele>
        <time>2021-09-30T10:44:01Z</time>
      </trkpt>
      <trkpt lat="46.2589" lon="6.2584">
        <ele>507</ele>
        <time>2021-09-30T10:44:13Z</time>
      </trkpt>
      <trkpt lat="46.25873" lon="6.25825">
        <ele>507</ele>
        <time>2021-09-30T10:44:19Z</time>
      </trkpt>
      <trkpt lat="46.25857" lon="6.2581">
        <ele>503</ele>
        <time>2021-09-30T10:44:24Z</time>
      </trkpt>
      <trkpt lat="46.25839" lon="6.25794">
        <ele>504</ele>
        <time>2021-09-30T10:44:30Z</time>
      </trkpt>
      <trkpt lat="46.258" lon="6.25773">
        <ele>504</ele>
        <time>2021-09-30T10:44:42Z</time>
      </trkpt>
      <trkpt lat="46.25782" lon="6.25765">
        <ele>505</ele>
        <time>2021-09-30T10:44:47Z</time>
      </trkpt>
      <trkpt lat="46.25761" lon="6.25764">
        <ele>505</ele>
        <time>2021-09-30T10:44:53Z</time>
      </trkpt>
      <trkpt lat="46.25743" lon="6.25771">
        <ele>506</ele>
        <time>2021-09-30T10:44:58Z</time>
      </trkpt>
      <trkpt lat="46.25705" lon="6.25782">
        <ele>506</ele>
        <time>2021-09-30T10:45:33Z</time>
      </trkpt>
      <trkpt lat="46.25684" lon="6.25786">
        <ele>506</ele>
        <time>2021-09-30T10:45:41Z</time>
      </trkpt>
      <trkpt lat="46.25665" lon="6.25789">
        <ele>507</ele>
        <time>2021-09-30T10:45:46Z</time>
      </trkpt>
      <trkpt lat="46.25627" lon="6.25792">
        <ele>508</ele>
        <time>2021-09-30T10:45:57Z</time>
      </trkpt>
      <trkpt lat="46.25609" lon="6.25795">
        <ele>508</ele>
        <time>2021-09-30T10:46:05Z</time>
      </trkpt>
      <trkpt lat="46.25591" lon="6.25802">
        <ele>509</ele>
        <time>2021-09-30T10:46:11Z</time>
      </trkpt>
      <trkpt lat="46.25574" lon="6.2581">
        <ele>509</ele>
        <time>2021-09-30T10:46:20Z</time>
      </trkpt>
      <trkpt lat="46.25535" lon="6.25832">
        <ele>510</ele>
        <time>2021-09-30T10:46:31Z</time>
      </trkpt>
      <trkpt lat="46.25516" lon="6.25844">
        <ele>510</ele>
        <time>2021-09-30T10:46:35Z</time>
      </trkpt>
      <trkpt lat="46.25496" lon="6.25855">
        <ele>510</ele>
        <time>2021-09-30T10:46:39Z</time>
      </trkpt>
      <trkpt lat="46.25459" lon="6.25873">
        <ele>510</ele>
        <time>2021-09-30T10:46:48Z</time>
      </trkpt>
      <trkpt lat="46.25439" lon="6.25881">
        <ele>510</ele>
        <time>2021-09-30T10:46:54Z</time>
      </trkpt>
      <trkpt lat="46.25419" lon="6.25889">
        <ele>510</ele>
        <time>2021-09-30T10:47:00Z</time>
      </trkpt>
      <trkpt lat="46.25399" lon="6.25898">
        <ele>510</ele>
        <time>2021-09-30T10:47:06Z</time>
      </trkpt>
      <trkpt lat="46.2536" lon="6.25891">
        <ele>511</ele>
        <time>2021-09-30T10:47:18Z</time>
      </trkpt>
      <trkpt lat="46.25344" lon="6.25871">
        <ele>511</ele>
        <time>2021-09-30T10:47:24Z</time>
      </trkpt>
      <trkpt lat="46.25329" lon="6.25853">
        <ele>512</ele>
        <time>2021-09-30T10:47:30Z</time>
      </trkpt>
      <trkpt lat="46.25288" lon="6.25825">
        <ele>456.5</ele>
      </trkpt>
      <trkpt lat="46.25273" lon="6.25813">
        <ele>456.8</ele>
      </trkpt>
      <trkpt lat="46.25257" lon="6.25828">
        <ele>457.7</ele>
        <time>2021-09-30T10:47:45Z</time>
      </trkpt>
      <trkpt lat="46.25249" lon="6.25852">
        <ele>517</ele>
        <time>2021-09-30T10:51:40Z</time>
      </trkpt>
      <trkpt lat="46.25238" lon="6.25876">
        <ele>517</ele>
        <time>2021-09-30T10:51:45Z</time>
      </trkpt>
      <trkpt lat="46.25225" lon="6.259">
        <ele>517</ele>
        <time>2021-09-30T10:51:51Z</time>
      </trkpt>
      <trkpt lat="46.25202" lon="6.2595">
        <ele>517</ele>
        <time>2021-09-30T10:52:01Z</time>
      </trkpt>
      <trkpt lat="46.25191" lon="6.25972">
        <ele>517</ele>
        <time>2021-09-30T10:52:06Z</time>
      </trkpt>
      <trkpt lat="46.25183" lon="6.25998">
        <ele>517</ele>
        <time>2021-09-30T10:52:13Z</time>
      </trkpt>
      <trkpt lat="46.25168" lon="6.26016">
        <ele>458.2</ele>
        <time>2021-09-30T10:52:34Z</time>
      </trkpt>
      <trkpt lat="46.25134" lon="6.25991">
        <ele>517</ele>
        <time>2021-09-30T10:52:45Z</time>
      </trkpt>
      <trkpt lat="46.25114" lon="6.25975">
        <ele>517</ele>
        <time>2021-09-30T10:52:49Z</time>
      </trkpt>
      <trkpt lat="46.25094" lon="6.25961">
        <ele>517</ele>
        <time>2021-09-30T10:52:53Z</time>
      </trkpt>
      <trkpt lat="46.25058" lon="6.25934">
        <ele>517</ele>
        <time>2021-09-30T10:53:01Z</time>
      </trkpt>
      <trkpt lat="46.25041" lon="6.25922">
        <ele>517</ele>
        <time>2021-09-30T10:53:05Z</time>
      </trkpt>
      <trkpt lat="46.25024" lon="6.2591">
        <ele>517</ele>
        <time>2021-09-30T10:53:09Z</time>
      </trkpt>
      <trkpt lat="46.25007" lon="6.25898">
        <ele>517</ele>
        <time>2021-09-30T10:53:13Z</time>
      </trkpt>
      <trkpt lat="46.24971" lon="6.25878">
        <ele>517</ele>
        <time>2021-09-30T10:53:22Z</time>
      </trkpt>
      <trkpt lat="46.24953" lon="6.25864">
        <ele>517</ele>
        <time>2021-09-30T10:53:27Z</time>
      </trkpt>
      <trkpt lat="46.24934" lon="6.25851">
        <ele>517</ele>
        <time>2021-09-30T10:53:32Z</time>
      </trkpt>
      <trkpt lat="46.24893" lon="6.25828">
        <ele>517</ele>
        <time>2021-09-30T10:53:42Z</time>
      </trkpt>
      <trkpt lat="46.24872" lon="6.25816">
        <ele>517</ele>
        <time>2021-09-30T10:53:47Z</time>
      </trkpt>
      <trkpt lat="46.24855" lon="6.25806">
        <ele>517</ele>
        <time>2021-09-30T10:53:51Z</time>
      </trkpt>
      <trkpt lat="46.24837" lon="6.25796">
        <ele>517</ele>
        <time>2021-09-30T10:53:55Z</time>
      </trkpt>
      <trkpt lat="46.248" lon="6.25774">
        <ele>517</ele>
        <time>2021-09-30T10:54:06Z</time>
      </trkpt>
      <trkpt lat="46.24783" lon="6.25764">
        <ele>517</ele>
        <time>2021-09-30T10:54:11Z</time>
      </trkpt>
      <trkpt lat="46.24763" lon="6.25753">
        <ele>517</ele>
        <time>2021-09-30T10:54:17Z</time>
      </trkpt>
      <trkpt lat="46.24744" lon="6.25744">
        <ele>464.7</ele>
        <time>2021-09-30T10:56:30Z</time>
      </trkpt>
      <trkpt lat="46.24712" lon="6.25733">
        <ele>522</ele>
        <time>2021-09-30T10:56:58Z</time>
      </trkpt>
      <trkpt lat="46.24692" lon="6.25725">
        <ele>522</ele>
        <time>2021-09-30T10:57:05Z</time>
      </trkpt>
      <trkpt lat="46.24674" lon="6.25716">
        <ele>522</ele>
        <time>2021-09-30T10:57:11Z</time>
      </trkpt>
      <trkpt lat="46.24633" lon="6.25699">
        <ele>522</ele>
        <time>2021-09-30T10:57:20Z</time>
      </trkpt>
      <trkpt lat="46.24611" lon="6.25689">
        <ele>522</ele>
        <time>2021-09-30T10:57:24Z</time>
      </trkpt>
      <trkpt lat="46.24593" lon="6.25681">
        <ele>522</ele>
        <time>2021-09-30T10:57:27Z</time>
      </trkpt>
      <trkpt lat="46.2457" lon="6.2567">
        <ele>522</ele>
        <time>2021-09-30T10:57:31Z</time>
      </trkpt>
      <trkpt lat="46.24529" lon="6.25652">
        <ele>522</ele>
        <time>2021-09-30T10:57:39Z</time>
      </trkpt>
      <trkpt lat="46.24509" lon="6.25644">
        <ele>522</ele>
        <time>2021-09-30T10:57:43Z</time>
      </trkpt>
      <trkpt lat="46.24491" lon="6.25637">
        <ele>522</ele>
        <time>2021-09-30T10:57:47Z</time>
      </trkpt>
      <trkpt lat="46.24455" lon="6.25621">
        <ele>522</ele>
        <time>2021-09-30T10:57:55Z</time>
      </trkpt>
      <trkpt lat="46.24398" lon="6.25599">
        <ele>522</ele>
        <time>2021-09-30T10:57:59Z</time>
      </trkpt>
      <trkpt lat="46.24429" lon="6.25495">
        <ele>517</ele>
        <time>2021-09-30T11:05:32Z</time>
      </trkpt>
      <trkpt lat="46.24438" lon="6.25468">
        <ele>518</ele>
        <time>2021-09-30T11:05:37Z</time>
      </trkpt>
      <trkpt lat="46.24455" lon="6.2541">
        <ele>519</ele>
        <time>2021-09-30T11:05:47Z</time>
      </trkpt>
      <trkpt lat="46.24464" lon="6.25381">
        <ele>519</ele>
        <time>2021-09-30T11:05:52Z</time>
      </trkpt>
      <trkpt lat="46.24472" lon="6.25355">
        <ele>519</ele>
        <time>2021-09-30T11:05:56Z</time>
      </trkpt>
      <trkpt lat="46.24489" lon="6.25301">
        <ele>518</ele>
        <time>2021-09-30T11:06:04Z</time>
      </trkpt>
      <trkpt lat="46.24496" lon="6.25277">
        <ele>517</ele>
        <time>2021-09-30T11:06:08Z</time>
      </trkpt>
      <trkpt lat="46.24506" lon="6.25249">
        <ele>516</ele>
        <time>2021-09-30T11:06:13Z</time>
      </trkpt>
      <trkpt lat="46.24514" lon="6.25225">
        <ele>516</ele>
        <time>2021-09-30T11:06:17Z</time>
      </trkpt>
      <trkpt lat="46.24531" lon="6.2517">
        <ele>515</ele>
        <time>2021-09-30T11:06:26Z</time>
      </trkpt>
      <trkpt lat="46.24528" lon="6.25146">
        <ele>512</ele>
        <time>2021-09-30T11:06:33Z</time>
      </trkpt>
      <trkpt lat="46.24509" lon="6.2513">
        <ele>512</ele>
        <time>2021-09-30T11:06:40Z</time>
      </trkpt>
      <trkpt lat="46.2449" lon="6.25112">
        <ele>513</ele>
        <time>2021-09-30T11:06:45Z</time>
      </trkpt>
      <trkpt lat="46.24457" lon="6.25086">
        <ele>515</ele>
        <time>2021-09-30T11:06:54Z</time>
      </trkpt>
      <trkpt lat="46.24444" lon="6.25068">
        <ele>514</ele>
        <time>2021-09-30T11:07:27Z</time>
      </trkpt>
      <trkpt lat="46.2443" lon="6.25045">
        <ele>514</ele>
        <time>2021-09-30T11:07:32Z</time>
      </trkpt>
      <trkpt lat="46.24399" lon="6.24996">
        <ele>514</ele>
        <time>2021-09-30T11:07:40Z</time>
      </trkpt>
      <trkpt lat="46.24384" lon="6.24977">
        <ele>513</ele>
        <time>2021-09-30T11:07:43Z</time>
      </trkpt>
      <trkpt lat="46.24366" lon="6.24958">
        <ele>512</ele>
        <time>2021-09-30T11:07:46Z</time>
      </trkpt>
      <trkpt lat="46.24344" lon="6.24939">
        <ele>512</ele>
        <time>2021-09-30T11:07:49Z</time>
      </trkpt>
      <trkpt lat="46.24297" lon="6.24903">
        <ele>509</ele>
        <time>2021-09-30T11:07:55Z</time>
      </trkpt>
      <trkpt lat="46.24276" lon="6.24887">
        <ele>508</ele>
        <time>2021-09-30T11:07:58Z</time>
      </trkpt>
      <trkpt lat="46.24256" lon="6.24871">
        <ele>508</ele>
        <time>2021-09-30T11:08:01Z</time>
      </trkpt>
      <trkpt lat="46.24218" lon="6.24833">
        <ele>507</ele>
        <time>2021-09-30T11:08:07Z</time>
      </trkpt>
      <trkpt lat="46.242" lon="6.24809">
        <ele>506</ele>
        <time>2021-09-30T11:08:10Z</time>
      </trkpt>
      <trkpt lat="46.24188" lon="6.24783">
        <ele>504</ele>
        <time>2021-09-30T11:08:13Z</time>
      </trkpt>
      <trkpt lat="46.24179" lon="6.24759">
        <ele>502</ele>
        <time>2021-09-30T11:08:16Z</time>
      </trkpt>
      <trkpt lat="46.24177" lon="6.24703">
        <ele>500</ele>
        <time>2021-09-30T11:08:22Z</time>
      </trkpt>
      <trkpt lat="46.24168" lon="6.24676">
        <ele>499</ele>
        <time>2021-09-30T11:08:25Z</time>
      </trkpt>
      <trkpt lat="46.24158" lon="6.2465">
        <ele>498</ele>
        <time>2021-09-30T11:08:28Z</time>
      </trkpt>
      <trkpt lat="46.2415" lon="6.24626">
        <ele>498</ele>
        <time>2021-09-30T11:08:31Z</time>
      </trkpt>
      <trkpt lat="46.24138" lon="6.24585">
        <ele>441.3</ele>
        <time>2021-09-30T11:08:43Z</time>
      </trkpt>
      <trkpt lat="46.24132" lon="6.24581">
        <ele>441.4</ele>
        <time>2021-09-30T11:11:41Z</time>
      </trkpt>
      <trkpt lat="46.24127" lon="6.24571">
        <ele>496</ele>
        <time>2021-09-30T11:11:48Z</time>
      </trkpt>
      <trkpt lat="46.24095" lon="6.24534">
        <ele>496</ele>
        <time>2021-09-30T11:12:02Z</time>
      </trkpt>
      <trkpt lat="46.24078" lon="6.24515">
        <ele>496</ele>
        <time>2021-09-30T11:12:08Z</time>
      </trkpt>
      <trkpt lat="46.24062" lon="6.24498">
        <ele>496</ele>
        <time>2021-09-30T11:12:13Z</time>
      </trkpt>
      <trkpt lat="46.24046" lon="6.24481">
        <ele>496</ele>
        <time>2021-09-30T11:12:19Z</time>
      </trkpt>
      <trkpt lat="46.24015" lon="6.24446">
        <ele>496</ele>
        <time>2021-09-30T11:12:29Z</time>
      </trkpt>
      <trkpt lat="46.23953" lon="6.24409">
        <ele>441.8</ele>
        <time>2021-09-30T11:12:34Z</time>
      </trkpt>
      <trkpt lat="46.23939" lon="6.24472">
        <ele>500</ele>
        <time>2021-09-30T11:15:35Z</time>
      </trkpt>
      <trkpt lat="46.23936" lon="6.24534">
        <ele>500</ele>
        <time>2021-09-30T11:15:46Z</time>
      </trkpt>
      <trkpt lat="46.23935" lon="6.24565">
        <ele>500</ele>
        <time>2021-09-30T11:15:52Z</time>
      </trkpt>
      <trkpt lat="46.23937" lon="6.24595">
        <ele>501</ele>
        <time>2021-09-30T11:15:58Z</time>
      </trkpt>
      <trkpt lat="46.23939" lon="6.24622">
        <ele>501</ele>
        <time>2021-09-30T11:16:04Z</time>
      </trkpt>
      <trkpt lat="46.23945" lon="6.24677">
        <ele>503</ele>
        <time>2021-09-30T11:16:16Z</time>
      </trkpt>
      <trkpt lat="46.23948" lon="6.24705">
        <ele>504</ele>
        <time>2021-09-30T11:16:22Z</time>
      </trkpt>
      <trkpt lat="46.2395" lon="6.24732">
        <ele>505</ele>
        <time>2021-09-30T11:16:29Z</time>
      </trkpt>
      <trkpt lat="46.23949" lon="6.24789">
        <ele>507</ele>
        <time>2021-09-30T11:16:42Z</time>
      </trkpt>
      <trkpt lat="46.23944" lon="6.24815">
        <ele>507</ele>
        <time>2021-09-30T11:16:48Z</time>
      </trkpt>
      <trkpt lat="46.23938" lon="6.24841">
        <ele>508</ele>
        <time>2021-09-30T11:16:54Z</time>
      </trkpt>
      <trkpt lat="46.23933" lon="6.24867">
        <ele>509</ele>
        <time>2021-09-30T11:17:03Z</time>
      </trkpt>
      <trkpt lat="46.23919" lon="6.24921">
        <ele>510</ele>
        <time>2021-09-30T11:17:15Z</time>
      </trkpt>
      <trkpt lat="46.2391" lon="6.24949">
        <ele>511</ele>
        <time>2021-09-30T11:17:21Z</time>
      </trkpt>
      <trkpt lat="46.23902" lon="6.24977">
        <ele>511</ele>
        <time>2021-09-30T11:17:26Z</time>
      </trkpt>
      <trkpt lat="46.23895" lon="6.25002">
        <ele>511</ele>
        <time>2021-09-30T11:17:30Z</time>
      </trkpt>
      <trkpt lat="46.2388" lon="6.25057">
        <ele>512</ele>
        <time>2021-09-30T11:17:38Z</time>
      </trkpt>
      <trkpt lat="46.23874" lon="6.25084">
        <ele>512</ele>
        <time>2021-09-30T11:17:43Z</time>
      </trkpt>
      <trkpt lat="46.23867" lon="6.25109">
        <ele>513</ele>
        <time>2021-09-30T11:17:49Z</time>
      </trkpt>
      <trkpt lat="46.23853" lon="6.25162">
        <ele>512</ele>
        <time>2021-09-30T11:17:59Z</time>
      </trkpt>
      <trkpt lat="46.23845" lon="6.2519">
        <ele>512</ele>
        <time>2021-09-30T11:18:03Z</time>
      </trkpt>
      <trkpt lat="46.23836" lon="6.25216">
        <ele>512</ele>
        <time>2021-09-30T11:18:07Z</time>
      </trkpt>
      <trkpt lat="46.23827" lon="6.2524">
        <ele>512</ele>
        <time>2021-09-30T11:18:11Z</time>
      </trkpt>
      <trkpt lat="46.2381" lon="6.25291">
        <ele>511</ele>
        <time>2021-09-30T11:18:23Z</time>
      </trkpt>
      <trkpt lat="46.23801" lon="6.25318">
        <ele>511</ele>
        <time>2021-09-30T11:18:32Z</time>
      </trkpt>
      <trkpt lat="46.23792" lon="6.25343">
        <ele>511</ele>
        <time>2021-09-30T11:18:38Z</time>
      </trkpt>
      <trkpt lat="46.23765" lon="6.25389">
        <ele>512</ele>
        <time>2021-09-30T11:18:50Z</time>
      </trkpt>
      <trkpt lat="46.23754" lon="6.2541">
        <ele>513</ele>
        <time>2021-09-30T11:18:56Z</time>
      </trkpt>
      <trkpt lat="46.23742" lon="6.25434">
        <ele>513</ele>
        <time>2021-09-30T11:19:02Z</time>
      </trkpt>
      <trkpt lat="46.23731" lon="6.25459">
        <ele>514</ele>
        <time>2021-09-30T11:19:08Z</time>
      </trkpt>
      <trkpt lat="46.23709" lon="6.25512">
        <ele>514</ele>
        <time>2021-09-30T11:19:23Z</time>
      </trkpt>
      <trkpt lat="46.237" lon="6.25537">
        <ele>515</ele>
        <time>2021-09-30T11:19:30Z</time>
      </trkpt>
      <trkpt lat="46.2369" lon="6.25561">
        <ele>516</ele>
        <time>2021-09-30T11:19:36Z</time>
      </trkpt>
      <trkpt lat="46.2368" lon="6.25585">
        <ele>517</ele>
        <time>2021-09-30T11:19:42Z</time>
      </trkpt>
      <trkpt lat="46.23662" lon="6.25636">
        <ele>521</ele>
        <time>2021-09-30T11:19:59Z</time>
      </trkpt>
      <trkpt lat="46.23651" lon="6.25661">
        <ele>522</ele>
        <time>2021-09-30T11:20:07Z</time>
      </trkpt>
      <trkpt lat="46.23639" lon="6.25685">
        <ele>523</ele>
        <time>2021-09-30T11:20:15Z</time>
      </trkpt>
      <trkpt lat="46.23618" lon="6.25737">
        <ele>526</ele>
        <time>2021-09-30T11:20:33Z</time>
      </trkpt>
      <trkpt lat="46.23612" lon="6.25767">
        <ele>526</ele>
        <time>2021-09-30T11:20:40Z</time>
      </trkpt>
      <trkpt lat="46.23607" lon="6.25797">
        <ele>526</ele>
        <time>2021-09-30T11:20:46Z</time>
      </trkpt>
      <trkpt lat="46.236" lon="6.25825">
        <ele>526</ele>
        <time>2021-09-30T11:20:52Z</time>
      </trkpt>
      <trkpt lat="46.23587" lon="6.25881">
        <ele>525</ele>
        <time>2021-09-30T11:21:03Z</time>
      </trkpt>
      <trkpt lat="46.23579" lon="6.25908">
        <ele>524</ele>
        <time>2021-09-30T11:21:08Z</time>
      </trkpt>
      <trkpt lat="46.23569" lon="6.25938">
        <ele>523</ele>
        <time>2021-09-30T11:21:13Z</time>
      </trkpt>
      <trkpt lat="46.23547" lon="6.25993">
        <ele>520</ele>
        <time>2021-09-30T11:21:23Z</time>
      </trkpt>
      <trkpt lat="46.23543" lon="6.26022">
        <ele>518</ele>
        <time>2021-09-30T11:21:30Z</time>
      </trkpt>
      <trkpt lat="46.23534" lon="6.2605">
        <ele>518</ele>
        <time>2021-09-30T11:21:36Z</time>
      </trkpt>
      <trkpt lat="46.23525" lon="6.26076">
        <ele>518</ele>
        <time>2021-09-30T11:21:43Z</time>
      </trkpt>
      <trkpt lat="46.23521" lon="6.26097">
        <ele>519</ele>
        <time>2021-09-30T11:22:23Z</time>
      </trkpt>
      <trkpt lat="46.23512" lon="6.26123">
        <ele>519</ele>
        <time>2021-09-30T11:22:31Z</time>
      </trkpt>
      <trkpt lat="46.23506" lon="6.26153">
        <ele>520</ele>
        <time>2021-09-30T11:22:37Z</time>
      </trkpt>
      <trkpt lat="46.23501" lon="6.26216">
        <ele>522</ele>
        <time>2021-09-30T11:22:48Z</time>
      </trkpt>
      <trkpt lat="46.23503" lon="6.26243">
        <ele>522</ele>
        <time>2021-09-30T11:22:52Z</time>
      </trkpt>
      <trkpt lat="46.23507" lon="6.26272">
        <ele>523</ele>
        <time>2021-09-30T11:22:57Z</time>
      </trkpt>
      <trkpt lat="46.2351" lon="6.263">
        <ele>523</ele>
        <time>2021-09-30T11:23:03Z</time>
      </trkpt>
      <trkpt lat="46.23505" lon="6.26356">
        <ele>524</ele>
        <time>2021-09-30T11:23:12Z</time>
      </trkpt>
      <trkpt lat="46.23501" lon="6.26384">
        <ele>524</ele>
        <time>2021-09-30T11:23:18Z</time>
      </trkpt>
      <trkpt lat="46.23497" lon="6.26413">
        <ele>525</ele>
        <time>2021-09-30T11:23:25Z</time>
      </trkpt>
      <trkpt lat="46.23491" lon="6.26442">
        <ele>525</ele>
        <time>2021-09-30T11:23:31Z</time>
      </trkpt>
      <trkpt lat="46.23478" lon="6.26494">
        <ele>525</ele>
        <time>2021-09-30T11:23:43Z</time>
      </trkpt>
      <trkpt lat="46.23472" lon="6.26519">
        <ele>525</ele>
        <time>2021-09-30T11:23:53Z</time>
      </trkpt>
      <trkpt lat="46.23476" lon="6.2654">
        <ele>526</ele>
        <time>2021-09-30T11:24:41Z</time>
      </trkpt>
      <trkpt lat="46.23496" lon="6.26559">
        <ele>472.6</ele>
        <time>2021-09-30T11:25:00Z</time>
      </trkpt>
      <trkpt lat="46.23513" lon="6.26577">
        <ele>473.2</ele>
        <time>2021-09-30T11:25:08Z</time>
      </trkpt>
      <trkpt lat="46.2352" lon="6.26599">
        <ele>473.3</ele>
      </trkpt>
      <trkpt lat="46.23528" lon="6.26624">
        <ele>473.3</ele>
        <time>2021-09-30T11:25:14Z</time>
      </trkpt>
      <trkpt lat="46.2354" lon="6.26646">
        <ele>528</ele>
        <time>2021-09-30T11:25:21Z</time>
      </trkpt>
      <trkpt lat="46.23559" lon="6.26695">
        <ele>527</ele>
        <time>2021-09-30T11:25:34Z</time>
      </trkpt>
      <trkpt lat="46.23571" lon="6.26717">
        <ele>527</ele>
        <time>2021-09-30T11:25:39Z</time>
      </trkpt>
      <trkpt lat="46.23586" lon="6.26738">
        <ele>528</ele>
        <time>2021-09-30T11:25:45Z</time>
      </trkpt>
      <trkpt lat="46.23612" lon="6.26774">
        <ele>528</ele>
        <time>2021-09-30T11:32:17Z</time>
      </trkpt>
      <trkpt lat="46.23621" lon="6.26799">
        <ele>528</ele>
        <time>2021-09-30T11:32:25Z</time>
      </trkpt>
      <trkpt lat="46.23632" lon="6.26824">
        <ele>528</ele>
        <time>2021-09-30T11:32:30Z</time>
      </trkpt>
      <trkpt lat="46.23644" lon="6.2685">
        <ele>528</ele>
        <time>2021-09-30T11:32:36Z</time>
      </trkpt>
      <trkpt lat="46.23665" lon="6.26899">
        <ele>528</ele>
        <time>2021-09-30T11:32:48Z</time>
      </trkpt>
      <trkpt lat="46.23674" lon="6.26926">
        <ele>528</ele>
        <time>2021-09-30T11:32:54Z</time>
      </trkpt>
      <trkpt lat="46.23686" lon="6.26949">
        <ele>528</ele>
        <time>2021-09-30T11:33:00Z</time>
      </trkpt>
      <trkpt lat="46.23698" lon="6.26973">
        <ele>528</ele>
        <time>2021-09-30T11:33:06Z</time>
      </trkpt>
      <trkpt lat="46.23719" lon="6.2702">
        <ele>531</ele>
        <time>2021-09-30T11:33:17Z</time>
      </trkpt>
      <trkpt lat="46.23732" lon="6.27043">
        <ele>531</ele>
        <time>2021-09-30T11:33:23Z</time>
      </trkpt>
      <trkpt lat="46.23742" lon="6.27066">
        <ele>532</ele>
        <time>2021-09-30T11:33:30Z</time>
      </trkpt>
      <trkpt lat="46.23831" lon="6.2714">
        <ele>533</ele>
        <time>2021-09-30T11:35:00Z</time>
      </trkpt>
      <trkpt lat="46.2385" lon="6.27151">
        <ele>532</ele>
        <time>2021-09-30T11:35:05Z</time>
      </trkpt>
      <trkpt lat="46.23867" lon="6.27161">
        <ele>532</ele>
        <time>2021-09-30T11:35:09Z</time>
      </trkpt>
      <trkpt lat="46.23886" lon="6.27174">
        <ele>531</ele>
        <time>2021-09-30T11:35:13Z</time>
      </trkpt>
      <trkpt lat="46.23938" lon="6.27206">
        <ele>529</ele>
        <time>2021-09-30T11:35:30Z</time>
      </trkpt>
      <trkpt lat="46.23958" lon="6.27205">
        <ele>528</ele>
        <time>2021-09-30T11:35:36Z</time>
      </trkpt>
      <trkpt lat="46.23996" lon="6.27211">
        <ele>528</ele>
        <time>2021-09-30T11:35:46Z</time>
      </trkpt>
      <trkpt lat="46.24013" lon="6.27226">
        <ele>527</ele>
        <time>2021-09-30T11:35:51Z</time>
      </trkpt>
      <trkpt lat="46.24032" lon="6.27242">
        <ele>526</ele>
        <time>2021-09-30T11:35:57Z</time>
      </trkpt>
      <trkpt lat="46.24047" lon="6.27256">
        <ele>526</ele>
        <time>2021-09-30T11:36:06Z</time>
      </trkpt>
      <trkpt lat="46.24081" lon="6.27279">
        <ele>526</ele>
        <time>2021-09-30T11:36:19Z</time>
      </trkpt>
      <trkpt lat="46.24097" lon="6.27297">
        <ele>526</ele>
        <time>2021-09-30T11:36:24Z</time>
      </trkpt>
      <trkpt lat="46.24113" lon="6.27314">
        <ele>526</ele>
        <time>2021-09-30T11:36:29Z</time>
      </trkpt>
      <trkpt lat="46.24141" lon="6.27357">
        <ele>526</ele>
        <time>2021-09-30T11:36:41Z</time>
      </trkpt>
      <trkpt lat="46.24153" lon="6.27382">
        <ele>526</ele>
        <time>2021-09-30T11:36:46Z</time>
      </trkpt>
      <trkpt lat="46.24162" lon="6.27405">
        <ele>527</ele>
        <time>2021-09-30T11:36:50Z</time>
      </trkpt>
      <trkpt lat="46.24174" lon="6.27433">
        <ele>527</ele>
        <time>2021-09-30T11:36:55Z</time>
      </trkpt>
      <trkpt lat="46.24193" lon="6.27484">
        <ele>527</ele>
        <time>2021-09-30T11:37:06Z</time>
      </trkpt>
      <trkpt lat="46.24202" lon="6.27509">
        <ele>527</ele>
        <time>2021-09-30T11:37:11Z</time>
      </trkpt>
      <trkpt lat="46.24211" lon="6.27534">
        <ele>527</ele>
        <time>2021-09-30T11:37:16Z</time>
      </trkpt>
      <trkpt lat="46.24221" lon="6.27561">
        <ele>527</ele>
        <time>2021-09-30T11:37:22Z</time>
      </trkpt>
      <trkpt lat="46.24243" lon="6.27619">
        <ele>528</ele>
        <time>2021-09-30T11:37:38Z</time>
      </trkpt>
      <trkpt lat="46.24255" lon="6.27645">
        <ele>528</ele>
        <time>2021-09-30T11:37:45Z</time>
      </trkpt>
      <trkpt lat="46.24265" lon="6.27671">
        <ele>529</ele>
        <time>2021-09-30T11:37:51Z</time>
      </trkpt>
      <trkpt lat="46.24289" lon="6.27726">
        <ele>530</ele>
        <time>2021-09-30T11:38:06Z</time>
      </trkpt>
      <trkpt lat="46.24303" lon="6.27757">
        <ele>530</ele>
        <time>2021-09-30T11:38:12Z</time>
      </trkpt>
      <trkpt lat="46.24317" lon="6.27786">
        <ele>531</ele>
        <time>2021-09-30T11:38:19Z</time>
      </trkpt>
      <trkpt lat="46.24329" lon="6.27814">
        <ele>531</ele>
        <time>2021-09-30T11:38:27Z</time>
      </trkpt>
      <trkpt lat="46.24359" lon="6.27876">
        <ele>531</ele>
        <time>2021-09-30T11:38:42Z</time>
      </trkpt>
      <trkpt lat="46.24373" lon="6.27908">
        <ele>532</ele>
        <time>2021-09-30T11:38:49Z</time>
      </trkpt>
      <trkpt lat="46.24385" lon="6.27942">
        <ele>532</ele>
        <time>2021-09-30T11:38:58Z</time>
      </trkpt>
      <trkpt lat="46.24421" lon="6.27983">
        <ele>532</ele>
        <time>2021-09-30T11:39:12Z</time>
      </trkpt>
      <trkpt lat="46.24442" lon="6.27991">
        <ele>532</ele>
        <time>2021-09-30T11:39:18Z</time>
      </trkpt>
      <trkpt lat="46.24461" lon="6.27997">
        <ele>533</ele>
        <time>2021-09-30T11:39:24Z</time>
      </trkpt>
      <trkpt lat="46.24481" lon="6.28008">
        <ele>533</ele>
        <time>2021-09-30T11:39:32Z</time>
      </trkpt>
      <trkpt lat="46.24494" lon="6.28062">
        <ele>533</ele>
        <time>2021-09-30T11:39:43Z</time>
      </trkpt>
      <trkpt lat="46.24503" lon="6.28087">
        <ele>534</ele>
        <time>2021-09-30T11:39:50Z</time>
      </trkpt>
      <trkpt lat="46.24514" lon="6.28109">
        <ele>534</ele>
        <time>2021-09-30T11:39:56Z</time>
      </trkpt>
      <trkpt lat="46.24527" lon="6.28128">
        <ele>534</ele>
        <time>2021-09-30T11:40:04Z</time>
      </trkpt>
      <trkpt lat="46.24552" lon="6.28169">
        <ele>534</ele>
        <time>2021-09-30T11:40:59Z</time>
      </trkpt>
      <trkpt lat="46.24564" lon="6.28192">
        <ele>534</ele>
        <time>2021-09-30T11:41:04Z</time>
      </trkpt>
      <trkpt lat="46.24577" lon="6.28215">
        <ele>534</ele>
        <time>2021-09-30T11:41:10Z</time>
      </trkpt>
      <trkpt lat="46.246" lon="6.28261">
        <ele>535</ele>
        <time>2021-09-30T11:41:21Z</time>
      </trkpt>
      <trkpt lat="46.24613" lon="6.28285">
        <ele>535</ele>
        <time>2021-09-30T11:41:26Z</time>
      </trkpt>
      <trkpt lat="46.24654" lon="6.28367">
        <ele>485.6</ele>
        <time>2021-09-30T12:07:20Z</time>
      </trkpt>
      <trkpt lat="46.24656" lon="6.28357">
        <ele>485.7</ele>
      </trkpt>
      <trkpt lat="46.24666" lon="6.28349">
        <ele>486.2</ele>
      </trkpt>
      <trkpt lat="46.24656" lon="6.28305">
        <ele>485.3</ele>
      </trkpt>
      <trkpt lat="46.24642" lon="6.28266">
        <ele>484.2</ele>
      </trkpt>
      <trkpt lat="46.2465" lon="6.28252">
        <ele>534</ele>
        <time>2021-09-30T12:07:27Z</time>
      </trkpt>
      <trkpt lat="46.24679" lon="6.28207">
        <ele>534</ele>
        <time>2021-09-30T12:07:37Z</time>
      </trkpt>
      <trkpt lat="46.24692" lon="6.28182">
        <ele>534</ele>
        <time>2021-09-30T12:07:42Z</time>
      </trkpt>
      <trkpt lat="46.24705" lon="6.28159">
        <ele>534</ele>
        <time>2021-09-30T12:07:47Z</time>
      </trkpt>
      <trkpt lat="46.24734" lon="6.28111">
        <ele>534</ele>
        <time>2021-09-30T12:08:02Z</time>
      </trkpt>
      <trkpt lat="46.24754" lon="6.28103">
        <ele>534</ele>
        <time>2021-09-30T12:08:09Z</time>
      </trkpt>
      <trkpt lat="46.24767" lon="6.28076">
        <ele>534</ele>
        <time>2021-09-30T12:08:17Z</time>
      </trkpt>
      <trkpt lat="46.24783" lon="6.28053">
        <ele>534</ele>
        <time>2021-09-30T12:08:24Z</time>
      </trkpt>
      <trkpt lat="46.24818" lon="6.28024">
        <ele>534</ele>
        <time>2021-09-30T12:08:38Z</time>
      </trkpt>
      <trkpt lat="46.24833" lon="6.27998">
        <ele>527</ele>
        <time>2021-09-30T12:08:53Z</time>
      </trkpt>
      <trkpt lat="46.24848" lon="6.27981">
        <ele>527</ele>
        <time>2021-09-30T12:08:58Z</time>
      </trkpt>
      <trkpt lat="46.24885" lon="6.27944">
        <ele>526</ele>
        <time>2021-09-30T12:09:10Z</time>
      </trkpt>
      <trkpt lat="46.24902" lon="6.2793">
        <ele>525</ele>
        <time>2021-09-30T12:09:17Z</time>
      </trkpt>
      <trkpt lat="46.24905" lon="6.279">
        <ele>525</ele>
        <time>2021-09-30T12:09:26Z</time>
      </trkpt>
      <trkpt lat="46.24892" lon="6.27895">
        <ele>524</ele>
        <time>2021-09-30T12:09:35Z</time>
      </trkpt>
      <trkpt lat="46.2489" lon="6.27853">
        <ele>525</ele>
        <time>2021-09-30T12:09:53Z</time>
      </trkpt>
      <trkpt lat="46.24906" lon="6.27833">
        <ele>524</ele>
        <time>2021-09-30T12:09:59Z</time>
      </trkpt>
      <trkpt lat="46.24922" lon="6.27812">
        <ele>524</ele>
        <time>2021-09-30T12:10:03Z</time>
      </trkpt>
      <trkpt lat="46.24937" lon="6.27793">
        <ele>524</ele>
        <time>2021-09-30T12:10:07Z</time>
      </trkpt>
      <trkpt lat="46.24966" lon="6.27756">
        <ele>523</ele>
        <time>2021-09-30T12:10:17Z</time>
      </trkpt>
      <trkpt lat="46.24983" lon="6.27735">
        <ele>522</ele>
        <time>2021-09-30T12:10:22Z</time>
      </trkpt>
      <trkpt lat="46.24999" lon="6.27722">
        <ele>522</ele>
        <time>2021-09-30T12:10:26Z</time>
      </trkpt>
      <trkpt lat="46.2503" lon="6.27713">
        <ele>521</ele>
        <time>2021-09-30T12:10:40Z</time>
      </trkpt>
      <trkpt lat="46.25044" lon="6.27695">
        <ele>520</ele>
        <time>2021-09-30T12:10:45Z</time>
      </trkpt>
      <trkpt lat="46.25061" lon="6.27676">
        <ele>520</ele>
        <time>2021-09-30T12:10:50Z</time>
      </trkpt>
      <trkpt lat="46.25075" lon="6.27658">
        <ele>519</ele>
        <time>2021-09-30T12:10:55Z</time>
      </trkpt>
      <trkpt lat="46.25088" lon="6.2764">
        <ele>469.5</ele>
      </trkpt>
      <trkpt lat="46.25096" lon="6.27676">
        <ele>519</ele>
        <time>2021-09-30T12:11:29Z</time>
      </trkpt>
      <trkpt lat="46.2511" lon="6.27717">
        <ele>520</ele>
        <time>2021-09-30T12:12:12Z</time>
      </trkpt>
      <trkpt lat="46.25119" lon="6.27744">
        <ele>520</ele>
        <time>2021-09-30T12:12:20Z</time>
      </trkpt>
      <trkpt lat="46.25128" lon="6.27808">
        <ele>520</ele>
        <time>2021-09-30T12:12:39Z</time>
      </trkpt>
      <trkpt lat="46.25132" lon="6.27838">
        <ele>519</ele>
        <time>2021-09-30T12:13:02Z</time>
      </trkpt>
      <trkpt lat="46.25146" lon="6.27869">
        <ele>520</ele>
        <time>2021-09-30T12:13:18Z</time>
      </trkpt>
      <trkpt lat="46.25157" lon="6.27914">
        <ele>519</ele>
        <time>2021-09-30T12:13:57Z</time>
      </trkpt>
      <trkpt lat="46.25199" lon="6.27884">
        <ele>474.1</ele>
        <time>2021-09-30T12:14:17Z</time>
      </trkpt>
      <trkpt lat="46.25221" lon="6.27869">
        <ele>474.2</ele>
        <time>2021-09-30T12:14:24Z</time>
      </trkpt>
      <trkpt lat="46.2524" lon="6.27856">
        <ele>474.1</ele>
        <time>2021-09-30T12:14:33Z</time>
      </trkpt>
      <trkpt lat="46.25258" lon="6.2789">
        <ele>519</ele>
        <time>2021-09-30T12:14:44Z</time>
      </trkpt>
      <trkpt lat="46.2529" lon="6.27956">
        <ele>523</ele>
        <time>2021-09-30T12:15:39Z</time>
      </trkpt>
      <trkpt lat="46.25304" lon="6.27979">
        <ele>524</ele>
        <time>2021-09-30T12:15:49Z</time>
      </trkpt>
      <trkpt lat="46.25317" lon="6.28008">
        <ele>523</ele>
        <time>2021-09-30T12:15:59Z</time>
      </trkpt>
      <trkpt lat="46.25342" lon="6.28062">
        <ele>523</ele>
        <time>2021-09-30T12:16:16Z</time>
      </trkpt>
      <trkpt lat="46.25346" lon="6.28093">
        <ele>523</ele>
        <time>2021-09-30T12:16:24Z</time>
      </trkpt>
      <trkpt lat="46.25349" lon="6.28123">
        <ele>523</ele>
        <time>2021-09-30T12:16:32Z</time>
      </trkpt>
      <trkpt lat="46.25354" lon="6.28154">
        <ele>475</ele>
        <time>2021-09-30T12:16:40Z</time>
      </trkpt>
      <trkpt lat="46.2537" lon="6.28229">
        <ele>523</ele>
        <time>2021-09-30T12:17:18Z</time>
      </trkpt>
      <trkpt lat="46.25376" lon="6.2826">
        <ele>523</ele>
        <time>2021-09-30T12:17:29Z</time>
      </trkpt>
      <trkpt lat="46.25388" lon="6.28296">
        <ele>523</ele>
        <time>2021-09-30T12:17:38Z</time>
      </trkpt>
      <trkpt lat="46.25405" lon="6.28367">
        <ele>523</ele>
        <time>2021-09-30T12:17:57Z</time>
      </trkpt>
      <trkpt lat="46.25411" lon="6.28405">
        <ele>523</ele>
        <time>2021-09-30T12:18:06Z</time>
      </trkpt>
      <trkpt lat="46.25424" lon="6.28443">
        <ele>523</ele>
        <time>2021-09-30T12:18:34Z</time>
      </trkpt>
      <trkpt lat="46.25439" lon="6.28462">
        <ele>523</ele>
        <time>2021-09-30T12:18:40Z</time>
      </trkpt>
      <trkpt lat="46.2547" lon="6.28504">
        <ele>523</ele>
        <time>2021-09-30T12:18:52Z</time>
      </trkpt>
      <trkpt lat="46.25484" lon="6.28524">
        <ele>523</ele>
        <time>2021-09-30T12:18:57Z</time>
      </trkpt>
      <trkpt lat="46.25498" lon="6.28545">
        <ele>523</ele>
        <time>2021-09-30T12:19:05Z</time>
      </trkpt>
      <trkpt lat="46.25525" lon="6.28597">
        <ele>523</ele>
        <time>2021-09-30T12:19:19Z</time>
      </trkpt>
      <trkpt lat="46.25535" lon="6.28629">
        <ele>523</ele>
        <time>2021-09-30T12:19:26Z</time>
      </trkpt>
      <trkpt lat="46.25542" lon="6.2866">
        <ele>523</ele>
        <time>2021-09-30T12:19:31Z</time>
      </trkpt>
      <trkpt lat="46.25548" lon="6.28688">
        <ele>523</ele>
        <time>2021-09-30T12:19:36Z</time>
      </trkpt>
      <trkpt lat="46.2556" lon="6.2875">
        <ele>523</ele>
        <time>2021-09-30T12:19:45Z</time>
      </trkpt>
      <trkpt lat="46.25567" lon="6.28778">
        <ele>523</ele>
        <time>2021-09-30T12:19:50Z</time>
      </trkpt>
      <trkpt lat="46.25569" lon="6.28807">
        <ele>523</ele>
        <time>2021-09-30T12:19:56Z</time>
      </trkpt>
      <trkpt lat="46.25575" lon="6.28834">
        <ele>523</ele>
        <time>2021-09-30T12:20:01Z</time>
      </trkpt>
      <trkpt lat="46.25591" lon="6.28889">
        <ele>523</ele>
        <time>2021-09-30T12:20:10Z</time>
      </trkpt>
      <trkpt lat="46.25608" lon="6.28908">
        <ele>523</ele>
        <time>2021-09-30T12:20:21Z</time>
      </trkpt>
      <trkpt lat="46.2563" lon="6.28924">
        <ele>523</ele>
        <time>2021-09-30T12:20:28Z</time>
      </trkpt>
      <trkpt lat="46.25668" lon="6.28955">
        <ele>523</ele>
        <time>2021-09-30T12:20:38Z</time>
      </trkpt>
      <trkpt lat="46.25688" lon="6.28969">
        <ele>523</ele>
        <time>2021-09-30T12:20:45Z</time>
      </trkpt>
      <trkpt lat="46.25708" lon="6.28983">
        <ele>523</ele>
        <time>2021-09-30T12:20:51Z</time>
      </trkpt>
      <trkpt lat="46.2573" lon="6.28996">
        <ele>523</ele>
        <time>2021-09-30T12:20:56Z</time>
      </trkpt>
      <trkpt lat="46.25771" lon="6.29028">
        <ele>523</ele>
        <time>2021-09-30T12:21:04Z</time>
      </trkpt>
      <trkpt lat="46.25792" lon="6.29045">
        <ele>523</ele>
        <time>2021-09-30T12:21:09Z</time>
      </trkpt>
      <trkpt lat="46.25811" lon="6.29057">
        <ele>523</ele>
        <time>2021-09-30T12:21:14Z</time>
      </trkpt>
      <trkpt lat="46.25849" lon="6.29083">
        <ele>523</ele>
        <time>2021-09-30T12:21:24Z</time>
      </trkpt>
      <trkpt lat="46.2587" lon="6.29088">
        <ele>523</ele>
        <time>2021-09-30T12:21:30Z</time>
      </trkpt>
      <trkpt lat="46.2589" lon="6.29065">
        <ele>523</ele>
        <time>2021-09-30T12:21:48Z</time>
      </trkpt>
      <trkpt lat="46.25906" lon="6.29042">
        <ele>523</ele>
        <time>2021-09-30T12:21:53Z</time>
      </trkpt>
      <trkpt lat="46.25932" lon="6.28994">
        <ele>519</ele>
        <time>2021-09-30T12:22:18Z</time>
      </trkpt>
      <trkpt lat="46.25952" lon="6.28976">
        <ele>519</ele>
        <time>2021-09-30T12:22:51Z</time>
      </trkpt>
      <trkpt lat="46.25966" lon="6.28955">
        <ele>519</ele>
        <time>2021-09-30T12:23:02Z</time>
      </trkpt>
      <trkpt lat="46.25952" lon="6.28932">
        <ele>519</ele>
        <time>2021-09-30T12:23:20Z</time>
      </trkpt>
      <trkpt lat="46.25972" lon="6.28891">
        <ele>520</ele>
        <time>2021-09-30T12:24:50Z</time>
      </trkpt>
      <trkpt lat="46.25991" lon="6.28884">
        <ele>520</ele>
        <time>2021-09-30T12:24:57Z</time>
      </trkpt>
      <trkpt lat="46.26002" lon="6.28856">
        <ele>520</ele>
        <time>2021-09-30T12:25:07Z</time>
      </trkpt>
      <trkpt lat="46.25982" lon="6.28794">
        <ele>520</ele>
        <time>2021-09-30T12:25:22Z</time>
      </trkpt>
      <trkpt lat="46.25964" lon="6.28771">
        <ele>520</ele>
        <time>2021-09-30T12:25:27Z</time>
      </trkpt>
      <trkpt lat="46.25949" lon="6.28747">
        <ele>520</ele>
        <time>2021-09-30T12:25:32Z</time>
      </trkpt>
      <trkpt lat="46.25934" lon="6.28722">
        <ele>520</ele>
        <time>2021-09-30T12:25:40Z</time>
      </trkpt>
      <trkpt lat="46.25902" lon="6.28678">
        <ele>520</ele>
        <time>2021-09-30T12:25:51Z</time>
      </trkpt>
      <trkpt lat="46.25882" lon="6.28657">
        <ele>520</ele>
        <time>2021-09-30T12:25:57Z</time>
      </trkpt>
      <trkpt lat="46.25866" lon="6.28636">
        <ele>520</ele>
        <time>2021-09-30T12:26:04Z</time>
      </trkpt>
      <trkpt lat="46.25842" lon="6.28574">
        <ele>520</ele>
        <time>2021-09-30T12:26:17Z</time>
      </trkpt>
      <trkpt lat="46.25839" lon="6.28538">
        <ele>520</ele>
        <time>2021-09-30T12:26:23Z</time>
      </trkpt>
      <trkpt lat="46.25827" lon="6.28513">
        <ele>520</ele>
        <time>2021-09-30T12:26:29Z</time>
      </trkpt>
      <trkpt lat="46.2581" lon="6.28486">
        <ele>520</ele>
        <time>2021-09-30T12:26:35Z</time>
      </trkpt>
      <trkpt lat="46.25784" lon="6.28431">
        <ele>520</ele>
        <time>2021-09-30T12:26:44Z</time>
      </trkpt>
      <trkpt lat="46.25772" lon="6.28407">
        <ele>520</ele>
        <time>2021-09-30T12:26:50Z</time>
      </trkpt>
      <trkpt lat="46.25764" lon="6.28375">
        <ele>520</ele>
        <time>2021-09-30T12:26:56Z</time>
      </trkpt>
      <trkpt lat="46.25743" lon="6.28307">
        <ele>520</ele>
        <time>2021-09-30T12:27:05Z</time>
      </trkpt>
      <trkpt lat="46.25735" lon="6.28275">
        <ele>520</ele>
        <time>2021-09-30T12:27:09Z</time>
      </trkpt>
      <trkpt lat="46.25733" lon="6.2824">
        <ele>520</ele>
        <time>2021-09-30T12:27:14Z</time>
      </trkpt>
      <trkpt lat="46.25724" lon="6.28212">
        <ele>520</ele>
        <time>2021-09-30T12:27:20Z</time>
      </trkpt>
      <trkpt lat="46.25732" lon="6.28158">
        <ele>520</ele>
        <time>2021-09-30T12:28:14Z</time>
      </trkpt>
      <trkpt lat="46.25748" lon="6.28133">
        <ele>520</ele>
        <time>2021-09-30T12:28:19Z</time>
      </trkpt>
      <trkpt lat="46.25755" lon="6.28106">
        <ele>520</ele>
        <time>2021-09-30T12:28:24Z</time>
      </trkpt>
      <trkpt lat="46.2576" lon="6.28072">
        <ele>520</ele>
        <time>2021-09-30T12:28:32Z</time>
      </trkpt>
      <trkpt lat="46.25782" lon="6.28015">
        <ele>520</ele>
        <time>2021-09-30T12:28:43Z</time>
      </trkpt>
      <trkpt lat="46.25795" lon="6.27991">
        <ele>520</ele>
        <time>2021-09-30T12:28:48Z</time>
      </trkpt>
      <trkpt lat="46.25809" lon="6.27966">
        <ele>520</ele>
        <time>2021-09-30T12:28:55Z</time>
      </trkpt>
      <trkpt lat="46.25844" lon="6.27916">
        <ele>518</ele>
        <time>2021-09-30T12:29:07Z</time>
      </trkpt>
      <trkpt lat="46.25862" lon="6.27891">
        <ele>516</ele>
        <time>2021-09-30T12:29:12Z</time>
      </trkpt>
      <trkpt lat="46.25881" lon="6.27864">
        <ele>515</ele>
        <time>2021-09-30T12:29:19Z</time>
      </trkpt>
      <trkpt lat="46.25897" lon="6.27838">
        <ele>515</ele>
        <time>2021-09-30T12:29:25Z</time>
      </trkpt>
      <trkpt lat="46.25921" lon="6.27786">
        <ele>515</ele>
        <time>2021-09-30T12:29:34Z</time>
      </trkpt>
      <trkpt lat="46.25934" lon="6.27758">
        <ele>515</ele>
        <time>2021-09-30T12:29:38Z</time>
      </trkpt>
      <trkpt lat="46.25945" lon="6.27733">
        <ele>514</ele>
        <time>2021-09-30T12:29:42Z</time>
      </trkpt>
      <trkpt lat="46.25969" lon="6.27678">
        <ele>513</ele>
        <time>2021-09-30T12:29:53Z</time>
      </trkpt>
      <trkpt lat="46.25985" lon="6.27658">
        <ele>513</ele>
        <time>2021-09-30T12:29:59Z</time>
      </trkpt>
      <trkpt lat="46.25995" lon="6.27627">
        <ele>513</ele>
        <time>2021-09-30T12:30:03Z</time>
      </trkpt>
      <trkpt lat="46.25998" lon="6.27593">
        <ele>513</ele>
        <time>2021-09-30T12:30:07Z</time>
      </trkpt>
      <trkpt lat="46.25988" lon="6.2753">
        <ele>512</ele>
        <time>2021-09-30T12:30:16Z</time>
      </trkpt>
      <trkpt lat="46.25985" lon="6.27498">
        <ele>511</ele>
        <time>2021-09-30T12:30:22Z</time>
      </trkpt>
      <trkpt lat="46.25983" lon="6.27464">
        <ele>511</ele>
        <time>2021-09-30T12:30:28Z</time>
      </trkpt>
      <trkpt lat="46.25981" lon="6.27434">
        <ele>510</ele>
        <time>2021-09-30T12:30:33Z</time>
      </trkpt>
      <trkpt lat="46.25981" lon="6.27373">
        <ele>509</ele>
        <time>2021-09-30T12:30:44Z</time>
      </trkpt>
      <trkpt lat="46.2598" lon="6.27339">
        <ele>509</ele>
        <time>2021-09-30T12:30:51Z</time>
      </trkpt>
      <trkpt lat="46.25975" lon="6.27303">
        <ele>508</ele>
        <time>2021-09-30T12:31:17Z</time>
      </trkpt>
      <trkpt lat="46.25952" lon="6.27253">
        <ele>508</ele>
        <time>2021-09-30T12:31:26Z</time>
      </trkpt>
      <trkpt lat="46.25936" lon="6.27234">
        <ele>507</ele>
        <time>2021-09-30T12:31:31Z</time>
      </trkpt>
      <trkpt lat="46.25919" lon="6.27221">
        <ele>507</ele>
        <time>2021-09-30T12:31:37Z</time>
      </trkpt>
      <trkpt lat="46.25902" lon="6.27207">
        <ele>507</ele>
        <time>2021-09-30T12:31:44Z</time>
      </trkpt>
      <trkpt lat="46.25867" lon="6.27174">
        <ele>507</ele>
        <time>2021-09-30T12:31:54Z</time>
      </trkpt>
      <trkpt lat="46.25851" lon="6.27156">
        <ele>507</ele>
        <time>2021-09-30T12:32:00Z</time>
      </trkpt>
      <trkpt lat="46.25849" lon="6.2713">
        <ele>507</ele>
        <time>2021-09-30T12:32:06Z</time>
      </trkpt>
      <trkpt lat="46.25868" lon="6.2708">
        <ele>507</ele>
        <time>2021-09-30T12:32:15Z</time>
      </trkpt>
      <trkpt lat="46.25878" lon="6.27049">
        <ele>507</ele>
        <time>2021-09-30T12:32:19Z</time>
      </trkpt>
      <trkpt lat="46.25888" lon="6.2702">
        <ele>506</ele>
        <time>2021-09-30T12:32:23Z</time>
      </trkpt>
      <trkpt lat="46.259" lon="6.2699">
        <ele>506</ele>
        <time>2021-09-30T12:32:27Z</time>
      </trkpt>
      <trkpt lat="46.25913" lon="6.26933">
        <ele>506</ele>
        <time>2021-09-30T12:32:34Z</time>
      </trkpt>
      <trkpt lat="46.25917" lon="6.26901">
        <ele>506</ele>
        <time>2021-09-30T12:32:38Z</time>
      </trkpt>
      <trkpt lat="46.25921" lon="6.26871">
        <ele>505</ele>
        <time>2021-09-30T12:32:42Z</time>
      </trkpt>
      <trkpt lat="46.25929" lon="6.26813">
        <ele>505</ele>
        <time>2021-09-30T12:32:51Z</time>
      </trkpt>
      <trkpt lat="46.25934" lon="6.26784">
        <ele>504</ele>
        <time>2021-09-30T12:32:56Z</time>
      </trkpt>
      <trkpt lat="46.25938" lon="6.26756">
        <ele>504</ele>
        <time>2021-09-30T12:33:01Z</time>
      </trkpt>
      <trkpt lat="46.25942" lon="6.26726">
        <ele>504</ele>
        <time>2021-09-30T12:33:06Z</time>
      </trkpt>
      <trkpt lat="46.25965" lon="6.26609">
        <ele>451</ele>
        <time>2021-09-30T12:33:14Z</time>
      </trkpt>
    </trkseg>
  </trk>
</gpx>